createdAt,value
2023-02-27T00:00:54.677Z,100685.69
2023-02-27T00:03:23.338Z,100687.31
2023-02-27T00:05:51.712Z,100682.25
2023-02-27T00:08:23.154Z,100691.91
2023-02-27T00:10:53.030Z,100693.19
2023-02-27T00:13:21.420Z,100686.31
2023-02-27T00:15:51.181Z,100691.41
2023-02-27T00:18:19.875Z,100684.19
2023-02-27T00:20:48.575Z,100686.97
2023-02-27T00:23:16.896Z,100680.75
2023-02-27T00:25:45.254Z,100687.63
2023-02-27T00:28:15.019Z,100686.66
2023-02-27T00:30:43.449Z,100683.88
2023-02-27T00:33:11.799Z,100675.03
2023-02-27T00:35:42.690Z,100677.50
2023-02-27T00:38:11.411Z,100685.19
2023-02-27T00:40:39.799Z,100686.84
2023-02-27T00:43:08.130Z,100684.06
2023-02-27T00:45:37.879Z,100690.28
2023-02-27T00:48:06.275Z,100685.03
2023-02-27T00:50:34.615Z,100676.38
2023-02-27T00:53:02.961Z,100676.38
2023-02-27T00:55:31.290Z,100685.03
2023-02-27T00:57:59.649Z,100692.22
2023-02-27T01:00:28.859Z,100687.16
2023-02-27T01:02:58.675Z,100685.00
2023-02-27T01:05:27.424Z,100689.59
2023-02-27T01:07:55.987Z,100686.16
2023-02-27T01:10:24.299Z,100698.44
2023-02-27T01:12:52.695Z,100689.91
2023-02-27T01:15:21.367Z,100690.59
2023-02-27T01:17:49.676Z,100692.22
2023-02-27T01:20:19.595Z,100686.81
2023-02-27T01:22:47.953Z,100689.41
2023-02-27T01:25:16.255Z,100692.22
2023-02-27T01:27:44.880Z,100671.13
2023-02-27T01:30:15.747Z,100684.19
2023-02-27T01:34:04.050Z,100673.53
2023-02-27T01:36:34.604Z,100671.59
2023-02-27T01:39:02.916Z,100667.66
2023-02-27T01:41:31.690Z,100681.69
2023-02-27T01:44:03.672Z,100671.41
2023-02-27T01:46:33.615Z,100680.72
2023-02-27T01:49:07.223Z,100673.53
2023-02-27T01:51:43.402Z,100679.44
2023-02-27T01:54:13.824Z,100668.97
2023-02-27T01:56:43.836Z,100681.06
2023-02-27T01:59:13.312Z,100673.22
2023-02-27T02:01:41.654Z,100679.09
2023-02-27T02:04:17.050Z,100675.66
2023-02-27T02:06:52.379Z,100679.09
2023-02-27T02:09:23.579Z,100676.84
2023-02-27T02:11:52.233Z,100667.50
2023-02-27T02:14:20.620Z,100668.50
2023-02-27T02:17:13.140Z,100670.25
2023-02-27T02:20:45.562Z,100674.84
2023-02-27T02:24:24.141Z,100675.16
2023-02-27T02:27:06.071Z,100674.47
2023-02-27T02:30:29.054Z,100670.53
2023-02-27T02:33:36.536Z,100676.25
2023-02-27T02:36:52.274Z,100678.22
2023-02-27T02:40:04.571Z,100676.41
2023-02-27T02:42:38.529Z,100670.19
2023-02-27T02:45:18.811Z,100673.63
2023-02-27T02:48:01.094Z,100675.25
2023-02-27T02:50:37.657Z,100672.50
2023-02-27T02:53:14.431Z,100673.31
2023-02-27T02:55:47.727Z,100666.59
2023-02-27T02:58:23.987Z,100672.63
2023-02-27T03:01:00.307Z,100669.88
2023-02-27T03:03:33.135Z,100677.72
2023-02-27T03:06:06.100Z,100680.34
2023-02-27T03:08:40.562Z,100678.72
2023-02-27T03:11:10.701Z,100678.22
2023-02-27T03:13:44.929Z,100679.66
2023-02-27T03:16:17.529Z,100675.13
2023-02-27T03:18:53.401Z,100685.41
2023-02-27T03:21:32.082Z,100684.75
2023-02-27T03:24:05.027Z,100683.28
2023-02-27T03:26:39.645Z,100691.09
2023-02-27T03:29:11.713Z,100696.16
2023-02-27T03:31:46.768Z,100688.31
2023-02-27T03:34:23.416Z,100690.94
2023-02-27T03:37:01.844Z,100684.75
2023-02-27T03:39:43.657Z,100689.97
2023-02-27T03:42:25.914Z,100692.72
2023-02-27T03:45:19.653Z,100696.03
2023-02-27T03:47:48.499Z,100702.38
2023-02-27T03:50:17.635Z,100689.78
2023-02-27T03:52:46.444Z,100713.44
2023-02-27T03:55:18.405Z,100706.91
2023-02-27T03:57:51.141Z,100710.81
2023-02-27T04:00:22.889Z,100715.53
2023-02-27T04:02:53.222Z,100700.47
2023-02-27T04:05:25.612Z,100715.84
2023-02-27T04:08:22.487Z,100717.13
2023-02-27T04:11:17.305Z,100721.72
2023-02-27T04:13:56.408Z,100714.81
2023-02-27T04:17:09.336Z,100718.44
2023-02-27T04:19:56.693Z,100717.59
2023-02-27T04:22:36.310Z,100727.25
2023-02-27T04:25:29.586Z,100722.84
2023-02-27T04:28:06.680Z,100723.66
2023-02-27T04:30:47.234Z,100730.50
2023-02-27T04:33:26.650Z,100727.75
2023-02-27T04:35:59.337Z,100731.34
2023-02-27T04:38:32.471Z,100727.75
2023-02-27T04:41:06.716Z,100735.41
2023-02-27T04:43:38.775Z,100743.25
2023-02-27T04:46:13.747Z,100738.03
2023-02-27T04:48:50.387Z,100733.63
2023-02-27T04:51:23.116Z,100738.72
2023-02-27T04:53:57.810Z,100744.06
2023-02-27T04:56:32.108Z,100747.50
2023-02-27T04:59:03.344Z,100757.00
2023-02-27T05:01:39.825Z,100752.56
2023-02-27T05:04:12.053Z,100750.78
2023-02-27T05:06:44.671Z,100754.06
2023-02-27T05:09:19.930Z,100759.28
2023-02-27T05:11:56.085Z,100761.22
2023-02-27T05:14:32.873Z,100758.78
2023-02-27T05:17:09.151Z,100764.81
2023-02-27T05:19:41.874Z,100752.72
2023-02-27T05:22:25.216Z,100763.16
2023-02-27T05:25:00.437Z,100762.22
2023-02-27T05:27:38.561Z,100763.16
2023-02-27T05:30:14.224Z,100765.13
2023-02-27T05:32:49.078Z,100760.22
2023-02-27T05:35:27.441Z,100763.81
2023-02-27T05:38:06.451Z,100771.47
2023-02-27T05:40:39.401Z,100772.63
2023-02-27T05:43:14.321Z,100776.69
2023-02-27T05:45:46.989Z,100771.78
2023-02-27T05:48:22.574Z,100781.41
2023-02-27T05:50:53.653Z,100776.19
2023-02-27T05:53:27.104Z,100777.16
2023-02-27T05:55:58.499Z,100783.38
2023-02-27T05:58:31.384Z,100778.28
2023-02-27T06:01:02.409Z,100778.28
2023-02-27T06:03:36.005Z,100770.75
2023-02-27T06:06:08.557Z,100775.97
2023-02-27T06:08:38.523Z,100781.88
2023-02-27T06:11:07.384Z,100786.94
2023-02-27T06:13:35.755Z,100784.03
2023-02-27T06:16:04.292Z,100787.44
2023-02-27T06:18:33.993Z,100790.06
2023-02-27T06:21:02.292Z,100793.34
2023-02-27T06:23:31.343Z,100788.13
2023-02-27T06:25:59.839Z,100789.25
2023-02-27T06:28:28.270Z,100792.16
2023-02-27T06:30:57.550Z,100799.34
2023-02-27T06:33:26.993Z,100795.41
2023-02-27T06:35:56.773Z,100805.34
2023-02-27T06:38:25.144Z,100803.03
2023-02-27T06:40:53.816Z,100804.16
2023-02-27T06:43:22.905Z,100808.56
2023-02-27T06:45:51.363Z,100817.22
2023-02-27T06:48:19.733Z,100813.78
2023-02-27T06:50:52.742Z,100816.56
2023-02-27T06:53:22.530Z,100817.50
2023-02-27T06:55:50.977Z,100826.16
2023-02-27T06:58:20.098Z,100815.72
2023-02-27T07:00:48.579Z,100826.31
2023-02-27T07:03:16.889Z,100819.47
2023-02-27T07:05:46.121Z,100816.03
2023-02-27T07:08:17.666Z,100820.41
2023-02-27T07:10:49.214Z,100829.22
2023-02-27T07:13:19.505Z,100826.50
2023-02-27T07:15:48.953Z,100841.31
2023-02-27T07:18:17.432Z,100847.22
2023-02-27T07:20:45.815Z,100845.41
2023-02-27T07:23:14.155Z,100847.88
2023-02-27T07:25:42.527Z,100837.44
2023-02-27T07:28:12.248Z,100829.44
2023-02-27T07:30:41.477Z,100849.53
2023-02-27T07:33:10.155Z,100828.94
2023-02-27T07:35:38.803Z,100830.88
2023-02-27T07:38:07.200Z,100849.31
2023-02-27T07:40:35.568Z,100848.13
2023-02-27T07:43:03.960Z,100848.56
2023-02-27T07:45:33.778Z,100846.94
2023-02-27T07:48:02.628Z,100841.88
2023-02-27T07:50:30.990Z,100843.81
2023-02-27T07:52:59.330Z,100853.56
2023-02-27T07:55:27.820Z,100844.09
2023-02-27T07:57:56.162Z,100843.13
2023-02-27T08:00:24.626Z,100848.03
2023-02-27T08:02:54.341Z,100851.47
2023-02-27T08:05:22.742Z,100840.22
2023-02-27T08:07:51.088Z,100839.28
2023-02-27T08:10:19.876Z,100839.09
2023-02-27T08:12:48.229Z,100842.22
2023-02-27T08:15:17.540Z,100830.16
2023-02-27T08:17:47.186Z,100835.38
2023-02-27T08:20:17.480Z,100837.00
2023-02-27T08:22:45.828Z,100843.22
2023-02-27T08:25:14.200Z,100838.94
2023-02-27T08:27:42.645Z,100858.88
2023-02-27T08:30:13.877Z,100836.19
2023-02-27T08:32:42.924Z,100829.88
2023-02-27T08:35:11.542Z,100849.09
2023-02-27T08:37:41.289Z,100845.19
2023-02-27T08:40:11.844Z,100841.63
2023-02-27T08:42:40.415Z,100853.03
2023-02-27T08:45:10.378Z,100849.47
2023-02-27T08:47:38.737Z,100853.72
2023-02-27T08:50:08.383Z,100847.50
2023-02-27T08:52:36.827Z,100849.81
2023-02-27T08:55:08.809Z,100846.22
2023-02-27T08:57:39.873Z,100853.75
2023-02-27T09:00:10.887Z,100831.75
2023-02-27T09:02:39.446Z,100854.78
2023-02-27T09:05:08.892Z,100844.88
2023-02-27T09:07:37.398Z,100852.22
2023-02-27T09:10:08.955Z,100854.53
2023-02-27T09:12:37.621Z,100859.75
2023-02-27T09:15:07.243Z,100856.84
2023-02-27T09:17:35.600Z,100850.34
2023-02-27T09:20:04.941Z,100852.81
2023-02-27T09:22:33.804Z,100854.97
2023-02-27T09:25:02.271Z,100865.13
2023-02-27T09:27:32.098Z,100856.97
2023-02-27T09:30:00.611Z,100859.41
2023-02-27T09:32:29.309Z,100869.28
2023-02-27T09:34:58.371Z,100861.94
2023-02-27T09:37:26.900Z,100857.53
2023-02-27T09:39:55.376Z,100880.56
2023-02-27T09:42:26.884Z,100869.66
2023-02-27T09:44:59.544Z,100871.19
2023-02-27T09:47:32.981Z,100874.47
2023-02-27T09:50:06.033Z,100889.81
2023-02-27T09:52:38.182Z,100882.34
2023-02-27T09:55:08.588Z,100896.22
2023-02-27T09:57:47.449Z,100880.06
2023-02-27T10:00:37.584Z,100895.13
2023-02-27T10:03:26.306Z,100905.81
2023-02-27T10:06:11.625Z,100896.66
2023-02-27T10:08:47.369Z,100899.78
2023-02-27T10:11:21.760Z,100901.28
2023-02-27T10:14:00.593Z,100908.66
2023-02-27T10:16:33.584Z,100901.13
2023-02-27T10:19:05.694Z,100906.72
2023-02-27T10:21:38.568Z,100909.69
2023-02-27T10:24:13.632Z,100914.44
2023-02-27T10:26:45.361Z,100905.47
2023-02-27T10:29:22.670Z,100915.75
2023-02-27T10:32:01.727Z,100919.88
2023-02-27T10:34:31.712Z,100911.03
2023-02-27T10:37:04.381Z,100917.91
2023-02-27T10:39:47.363Z,100926.41
2023-02-27T10:42:17.606Z,100915.00
2023-02-27T10:44:46.285Z,100918.25
2023-02-27T10:47:17.670Z,100927.72
2023-02-27T10:49:46.040Z,100915.50
2023-02-27T10:52:16.718Z,100916.13
2023-02-27T10:54:46.556Z,100913.22
2023-02-27T10:57:28.577Z,100921.56
2023-02-27T10:59:59.467Z,100910.09
2023-02-27T11:02:37.244Z,100908.97
2023-02-27T11:05:08.778Z,100902.63
2023-02-27T11:07:39.995Z,100911.09
2023-02-27T11:10:20.152Z,100907.34
2023-02-27T11:13:06.619Z,100905.88
2023-02-27T11:15:36.674Z,100913.41
2023-02-27T11:18:27.232Z,100903.63
2023-02-27T11:21:11.317Z,100888.41
2023-02-27T11:23:50.349Z,100879.25
2023-02-27T11:26:24.074Z,100882.53
2023-02-27T11:29:08.151Z,100894.47
2023-02-27T11:31:38.309Z,100885.28
2023-02-27T11:34:15.642Z,100890.22
2023-02-27T11:36:46.779Z,100886.59
2023-02-27T11:39:30.602Z,100890.56
2023-02-27T11:42:08.061Z,100891.19
2023-02-27T11:44:50.043Z,100889.06
2023-02-27T11:47:25.305Z,100896.78
2023-02-27T11:50:31.578Z,100894.19
2023-02-27T11:53:28.432Z,100890.72
2023-02-27T11:55:59.885Z,100888.56
2023-02-27T11:58:34.323Z,100884.00
2023-02-27T12:01:07.814Z,100880.06
2023-02-27T12:03:48.633Z,100886.94
2023-02-27T12:06:21.875Z,100880.75
2023-02-27T12:08:56.168Z,100873.69
2023-02-27T12:11:29.948Z,100865.84
2023-02-27T12:14:05.286Z,100873.53
2023-02-27T12:16:40.687Z,100868.78
2023-02-27T12:19:19.105Z,100867.81
2023-02-27T12:21:55.220Z,100856.16
2023-02-27T12:24:27.250Z,100854.03
2023-02-27T12:27:10.252Z,100843.41
2023-02-27T12:29:45.518Z,100848.28
2023-02-27T12:32:21.971Z,100844.38
2023-02-27T12:34:54.934Z,100837.63
2023-02-27T12:37:26.769Z,100834.50
2023-02-27T12:39:57.835Z,100853.19
2023-02-27T12:43:11.084Z,100846.13
2023-02-27T12:45:57.366Z,100854.66
2023-02-27T12:48:54.622Z,100840.09
2023-02-27T12:51:39.373Z,100849.75
2023-02-27T12:54:23.880Z,100856.63
2023-02-27T12:57:07.557Z,100849.44
2023-02-27T12:59:52.004Z,100852.84
2023-02-27T13:02:43.945Z,100844.81
2023-02-27T13:05:38.303Z,100837.63
2023-02-27T13:08:40.815Z,100847.09
2023-02-27T13:11:24.160Z,100832.19
2023-02-27T13:13:58.152Z,100826.75
2023-02-27T13:16:33.056Z,100821.53
2023-02-27T13:19:15.247Z,100833.81
2023-02-27T13:21:51.273Z,100832.84
2023-02-27T13:24:28.006Z,100834.47
2023-02-27T13:27:03.199Z,100832.69
2023-02-27T13:29:39.462Z,100822.00
2023-02-27T13:32:41.368Z,100828.09
2023-02-27T13:35:26.710Z,100831.53
2023-02-27T13:37:58.445Z,100833.34
2023-02-27T13:40:34.151Z,100829.06
2023-02-27T13:43:28.621Z,100830.88
2023-02-27T13:46:00.131Z,100824.00
2023-02-27T13:48:46.763Z,100819.56
2023-02-27T13:51:46.877Z,100828.25
2023-02-27T13:54:28.802Z,100825.63
2023-02-27T13:57:21.417Z,100834.97
2023-02-27T14:00:01.524Z,100832.97
2023-02-27T14:02:56.516Z,100838.06
2023-02-27T14:05:34.991Z,100816.75
2023-02-27T14:08:11.500Z,100819.19
2023-02-27T14:10:43.013Z,100814.78
2023-02-27T14:14:04.618Z,100829.69
2023-02-27T14:17:03.660Z,100831.50
2023-02-27T14:19:59.353Z,100829.88
2023-02-27T14:23:18.492Z,100833.47
2023-02-27T14:25:49.139Z,100841.31
2023-02-27T14:28:26.746Z,100829.22
2023-02-27T14:31:01.252Z,100843.31
2023-02-27T14:33:41.417Z,100851.31
2023-02-27T14:36:17.183Z,100852.50
2023-02-27T14:38:45.888Z,100849.22
2023-02-27T14:41:32.092Z,100840.88
2023-02-27T14:44:00.764Z,100846.94
2023-02-27T14:46:32.008Z,100840.72
2023-02-27T14:49:04.392Z,100841.34
2023-02-27T14:51:35.821Z,100845.97
2023-02-27T14:54:07.530Z,100831.53
2023-02-27T14:56:35.962Z,100835.16
2023-02-27T14:59:05.242Z,100828.28
2023-02-27T15:01:37.901Z,100823.84
2023-02-27T15:04:08.569Z,100829.09
2023-02-27T15:06:44.660Z,100835.16
2023-02-27T15:09:24.170Z,100829.91
2023-02-27T15:12:03.664Z,100824.66
2023-02-27T15:14:36.201Z,100825.47
2023-02-27T15:17:05.190Z,100826.94
2023-02-27T15:19:35.289Z,100822.53
2023-02-27T15:22:05.704Z,100807.44
2023-02-27T15:24:49.423Z,100812.50
2023-02-27T15:27:21.179Z,100815.00
2023-02-27T15:29:53.016Z,100815.13
2023-02-27T15:32:28.444Z,100793.34
2023-02-27T15:35:00.977Z,100814.81
2023-02-27T15:37:32.289Z,100819.22
2023-02-27T15:40:02.532Z,100824.00
2023-02-27T15:42:33.568Z,100823.81
2023-02-27T15:45:02.469Z,100818.41
2023-02-27T15:47:33.123Z,100823.34
2023-02-27T15:50:11.576Z,100831.34
2023-02-27T15:52:44.672Z,100835.78
2023-02-27T15:55:17.133Z,100832.50
2023-02-27T15:58:00.670Z,100815.13
2023-02-27T16:00:32.512Z,100823.19
2023-02-27T16:03:01.554Z,100825.97
2023-02-27T16:05:37.580Z,100835.63
2023-02-27T16:08:07.609Z,100834.00
2023-02-27T16:10:39.092Z,100826.75
2023-02-27T16:13:35.922Z,100836.44
2023-02-27T16:16:07.352Z,100843.16
2023-02-27T16:18:39.148Z,100839.72
2023-02-27T16:21:15.603Z,100848.59
2023-02-27T16:23:45.054Z,100848.59
2023-02-27T16:26:32.626Z,100857.41
2023-02-27T16:29:04.151Z,100852.97
2023-02-27T16:31:35.126Z,100862.66
2023-02-27T16:34:15.301Z,100856.59
2023-02-27T16:36:54.742Z,100873.00
2023-02-27T16:39:23.129Z,100873.81
2023-02-27T16:41:53.772Z,100873.63
2023-02-27T16:44:24.392Z,100883.47
2023-02-27T16:46:53.445Z,100881.00
2023-02-27T16:49:24.954Z,100879.72
2023-02-27T16:51:54.816Z,100871.03
2023-02-27T16:54:24.293Z,100874.47
2023-02-27T16:56:52.868Z,100882.31
2023-02-27T16:59:31.350Z,100881.34
2023-02-27T17:02:02.633Z,100882.50
2023-02-27T17:04:31.621Z,100888.25
2023-02-27T17:07:06.365Z,100883.03
2023-02-27T17:09:35.217Z,100899.69
2023-02-27T17:12:03.533Z,100898.88
2023-02-27T17:14:31.889Z,100899.06
2023-02-27T17:17:00.238Z,100900.03
2023-02-27T17:19:31.642Z,100907.91
2023-02-27T17:22:01.939Z,100907.41
2023-02-27T17:24:34.927Z,100929.22
2023-02-27T17:27:03.263Z,100918.41
2023-02-27T17:29:31.713Z,100926.56
2023-02-27T17:32:02.277Z,100926.75
2023-02-27T17:34:30.968Z,100929.38
2023-02-27T17:37:00.779Z,100928.25
2023-02-27T17:39:33.503Z,100932.50
2023-02-27T17:42:01.821Z,100939.53
2023-02-27T17:44:30.155Z,100936.25
2023-02-27T17:46:58.640Z,100936.41
2023-02-27T17:49:27.150Z,100945.09
2023-02-27T17:51:57.630Z,100942.31
2023-02-27T17:54:27.465Z,100948.53
2023-02-27T17:56:55.812Z,100944.44
2023-02-27T17:59:24.161Z,100946.22
2023-02-27T18:01:54.596Z,100948.03
2023-02-27T18:04:23.842Z,100950.50
2023-02-27T18:06:57.957Z,100951.16
2023-02-27T18:09:27.781Z,100957.22
2023-02-27T18:11:56.379Z,100967.69
2023-02-27T18:14:24.872Z,100962.31
2023-02-27T18:16:56.300Z,100961.31
2023-02-27T18:19:25.430Z,100963.13
2023-02-27T18:21:56.248Z,100968.19
2023-02-27T18:24:24.644Z,100962.13
2023-02-27T18:26:54.579Z,100969.66
2023-02-27T18:29:23.244Z,100967.88
2023-02-27T18:31:53.666Z,100978.34
2023-02-27T18:34:22.561Z,100978.19
2023-02-27T18:36:51.921Z,100977.34
2023-02-27T18:39:20.614Z,100979.97
2023-02-27T18:41:48.941Z,100991.44
2023-02-27T18:44:18.655Z,100990.63
2023-02-27T18:46:49.508Z,100971.81
2023-02-27T18:49:17.954Z,100982.09
2023-02-27T18:51:46.434Z,100982.09
2023-02-27T18:54:15.267Z,100986.53
2023-02-27T18:56:43.634Z,100988.16
2023-02-27T18:59:13.567Z,100985.91
2023-02-27T19:01:43.373Z,100993.59
2023-02-27T19:04:11.697Z,100987.53
2023-02-27T19:06:42.296Z,100986.03
2023-02-27T19:09:13.344Z,100989.47
2023-02-27T19:11:41.855Z,100990.66
2023-02-27T19:14:14.012Z,100980.31
2023-02-27T19:16:44.306Z,101000.44
2023-02-27T19:19:12.799Z,100995.53
2023-02-27T19:21:41.334Z,101001.75
2023-02-27T19:24:13.923Z,100996.03
2023-02-27T19:26:42.436Z,100990.78
2023-02-27T19:29:11.038Z,100989.59
2023-02-27T19:31:39.464Z,100991.09
2023-02-27T19:34:09.266Z,100986.81
2023-02-27T19:36:38.185Z,100994.97
2023-02-27T19:39:06.608Z,100989.09
2023-02-27T19:41:35.128Z,100983.19
2023-02-27T19:44:03.507Z,100993.97
2023-02-27T19:46:34.813Z,100999.72
2023-02-27T19:49:08.305Z,101000.03
2023-02-27T19:51:36.833Z,100985.28
2023-02-27T19:54:05.458Z,101001.81
2023-02-27T19:56:33.811Z,101004.75
2023-02-27T19:59:02.597Z,100996.91
2023-02-27T20:01:34.451Z,100989.22
2023-02-27T20:04:03.498Z,100998.56
2023-02-27T20:06:41.898Z,100997.56
2023-02-27T20:09:14.432Z,101004.44
2023-02-27T20:11:43.512Z,101004.31
2023-02-27T20:14:13.902Z,100996.44
2023-02-27T20:16:43.452Z,100995.78
2023-02-27T20:19:15.103Z,101002.63
2023-02-27T20:21:46.263Z,101000.88
2023-02-27T20:24:16.423Z,100998.56
2023-02-27T20:26:48.825Z,100991.66
2023-02-27T20:29:20.242Z,100998.88
2023-02-27T20:31:52.655Z,100995.28
2023-02-27T20:34:25.555Z,100998.88
2023-02-27T20:36:57.642Z,100999.00
2023-02-27T20:39:27.988Z,100999.19
2023-02-27T20:41:56.338Z,100993.28
2023-02-27T20:44:24.702Z,100990.00
2023-02-27T20:46:53.219Z,100991.66
2023-02-27T20:49:22.776Z,100985.28
2023-02-27T20:51:51.103Z,100996.56
2023-02-27T20:54:21.103Z,100992.16
2023-02-27T20:56:52.860Z,100995.44
2023-02-27T20:59:23.454Z,100993.63
2023-02-27T21:01:54.789Z,100991.84
2023-02-27T21:04:29.241Z,100992.66
2023-02-27T21:06:57.593Z,101002.81
2023-02-27T21:09:27.335Z,101002.63
2023-02-27T21:11:56.143Z,100998.25
2023-02-27T21:14:24.457Z,101007.06
2023-02-27T21:16:52.784Z,101002.81
2023-02-27T21:19:21.767Z,100997.75
2023-02-27T21:21:50.096Z,100999.38
2023-02-27T21:24:18.968Z,100994.97
2023-02-27T21:26:49.282Z,101004.63
2023-02-27T21:29:20.470Z,100993.16
2023-02-27T21:31:50.876Z,101003.50
2023-02-27T21:34:22.278Z,100999.88
2023-02-27T21:36:52.059Z,100993.97
2023-02-27T21:39:22.937Z,100991.22
2023-02-27T21:41:53.239Z,101005.13
2023-02-27T21:44:25.028Z,100998.25
2023-02-27T21:46:53.954Z,100987.91
2023-02-27T21:49:25.183Z,100987.28
2023-02-27T21:51:53.587Z,100981.53
2023-02-27T21:54:22.155Z,100981.53
2023-02-27T21:56:52.099Z,100973.81
2023-02-27T21:59:21.760Z,100974.63
2023-02-27T22:01:50.197Z,100970.06
2023-02-27T22:04:20.624Z,100968.28
2023-02-27T22:06:50.128Z,100972.69
2023-02-27T22:09:19.337Z,100976.31
2023-02-27T22:11:48.246Z,100974.50
2023-02-27T22:14:18.138Z,100972.69
2023-02-27T22:16:47.121Z,100975.13
2023-02-27T22:19:19.968Z,100961.91
2023-02-27T22:21:48.886Z,100967.28
2023-02-27T22:24:17.764Z,100969.91
2023-02-27T22:26:47.768Z,100969.09
2023-02-27T22:29:18.202Z,100964.47
2023-02-27T22:31:47.114Z,100968.25
2023-02-27T22:34:19.379Z,100970.06
2023-02-27T22:36:52.287Z,100968.25
2023-02-27T22:39:21.789Z,100975.28
2023-02-27T22:41:50.136Z,100971.81
2023-02-27T22:44:20.370Z,100972.50
2023-02-27T22:46:50.680Z,100975.28
2023-02-27T22:49:22.312Z,100970.06
2023-02-27T22:51:51.990Z,100962.22
2023-02-27T22:54:22.867Z,100966.75
2023-02-27T22:56:52.626Z,100961.53
2023-02-27T22:59:23.207Z,100965.13
2023-02-27T23:01:54.035Z,100968.56
2023-02-27T23:04:22.553Z,100968.72
2023-02-27T23:06:52.801Z,100967.75
2023-02-27T23:09:24.188Z,100976.44
2023-02-27T23:11:53.250Z,100959.09
2023-02-27T23:14:23.723Z,100970.06
2023-02-27T23:16:52.145Z,100971.81
2023-02-27T23:19:23.842Z,100970.88
2023-02-27T23:21:52.604Z,100965.63
2023-02-27T23:24:21.282Z,100964.81
2023-02-27T23:26:52.420Z,100967.75
2023-02-27T23:29:22.824Z,100973.94
2023-02-27T23:31:54.278Z,100974.94
2023-02-27T23:34:22.836Z,100970.69
2023-02-27T23:36:51.462Z,100966.56
2023-02-27T23:39:20.659Z,100972.63
2023-02-27T23:41:49.400Z,100972.94
2023-02-27T23:44:17.790Z,100975.56
2023-02-27T23:46:47.512Z,100977.84
2023-02-27T23:49:15.924Z,100972.78
2023-02-27T23:51:44.420Z,100972.91
2023-02-27T23:54:12.946Z,100967.69
2023-02-27T23:56:41.284Z,100972.09
2023-02-27T23:59:09.737Z,100974.72
